Tabellarische Übersicht vom Samstag, den 15.05.2021

Oder anderes Datum wählen:






max 14,7°C 92,0% 11,4°C 1007,1hPa 15,0°C 0,0km/h (0Bft) 0,0km/h 0° (N) ∑9,5l/m² 109,000klx ∑230,5min
min 9,3°C 69,0% 8,0°C 999,8hPa 9,0°C 0,0km/h (0Bft) 0,0km/h 0° (N) ∑9,5l/m² 0,000klx ∑230,5min
Ø 11,4°C 88,0% 9,4°C 1003,6hPa 11,0°C 0,0km/h (0Bft) 0,0km/h 0° (N) ∑9,5l/m² 21,000klx ∑230,5min
Zeit Temperatur Luftfeuchte Taupunkt Luftdruck Windchill Windböen Windgeschwindigkeit Windrichtung Regen Helligkeit Regenzeit
23:00 10,6°C 91,8% 9,3°C 1000,7hPa 10,6°C 0,0km/h (0Bft) 0,0km/h 0,0l/m² 0,000klx 0,0min
22:55 10,6°C 91,8% 9,4°C 1000,7hPa 10,6°C 0,0km/h (0Bft) 0,0km/h 0,0l/m² 0,000klx 0,0min
22:50 10,7°C 91,8% 9,4°C 1000,6hPa 10,7°C 0,0km/h (0Bft) 0,0km/h 0,0l/m² 0,000klx 0,0min
22:45 10,8°C 91,8% 9,5°C 1000,6hPa 10,8°C 0,0km/h (0Bft) 0,0km/h 0,0l/m² 0,000klx 0,0min
22:40 10,9°C 91,7% 9,6°C 1000,6hPa 10,9°C 0,0km/h (0Bft) 0,0km/h 0,0l/m² 0,000klx 0,0min
22:35 10,5°C 91,4% 9,2°C 1000,6hPa 10,5°C 0,0km/h (0Bft) 0,0km/h 0,0l/m² 0,000klx 0,0min
22:30 10,5°C 91,4% 9,2°C 1000,5hPa 10,5°C 0,0km/h (0Bft) 0,0km/h 0,0l/m² 0,000klx 0,0min
22:25 10,6°C 91,5% 9,2°C 1000,4hPa 10,6°C 0,0km/h (0Bft) 0,0km/h 0,0l/m² 0,000klx 2,2min
22:20 11,1°C 91,4% 9,8°C 1000,4hPa 11,1°C 0,0km/h (0Bft) 0,0km/h 0,0l/m² 0,000klx 5,0min
22:15 11,1°C 91,4% 9,7°C 1000,4hPa 11,1°C 0,0km/h (0Bft) 0,0km/h 0,1l/m² 0,000klx 5,0min
22:10 11,1°C 91,5% 9,8°C 1000,4hPa 11,1°C 0,0km/h (0Bft) 0,0km/h 0,2l/m² 0,000klx 5,0min
22:05 10,8°C 91,4% 9,5°C 1000,5hPa 10,8°C 0,0km/h (0Bft) 0,0km/h 0,6l/m² 0,000klx 5,0min
22:00 10,6°C 91,3% 9,2°C 1000,4hPa 10,6°C 0,0km/h (0Bft) 0,0km/h 0,2l/m² 0,000klx 5,0min
21:55 11,1°C 90,9% 9,7°C 1000,3hPa 11,1°C 0,0km/h (0Bft) 0,0km/h 0,1l/m² 0,001klx 5,0min
21:50 11,3°C 90,8% 9,9°C 1000,3hPa 11,3°C 0,0km/h (0Bft) 0,0km/h 0,5l/m² 0,001klx 5,0min
21:45 11,1°C 90,5% 9,6°C 1000,2hPa 11,1°C 0,0km/h (0Bft) 0,0km/h 0,3l/m² 0,003klx 5,0min
21:40 11,3°C 89,6% 9,7°C 1000,2hPa 11,3°C 0,0km/h (0Bft) 0,0km/h 0,0l/m² 0,006klx 3,9min
21:35 11,6°C 89,4% 9,9°C 1000,1hPa 11,6°C 0,0km/h (0Bft) 0,0km/h 0,0l/m² 0,018klx 0,0min
21:30 11,7°C 88,8% 9,9°C 1000,1hPa 11,7°C 0,0km/h (0Bft) 0,0km/h 0,0l/m² 0,048klx 0,0min
21:25 11,6°C 89,3% 9,9°C 999,9hPa 11,6°C 0,0km/h (0Bft) 0,0km/h 0,0l/m² 0,107klx 0,0min
21:20 11,7°C 89,0% 9,9°C 999,8hPa 11,7°C 0,0km/h (0Bft) 0,0km/h 0,0l/m² 0,155klx 0,0min
21:15 11,6°C 89,7% 10,0°C 999,8hPa 11,6°C 0,0km/h (0Bft) 0,0km/h 0,0l/m² 0,245klx 0,0min
21:10 11,5°C 90,2% 9,9°C 999,8hPa 11,5°C 0,0km/h (0Bft) 0,0km/h 0,0l/m² 0,338klx 0,0min
21:05 11,4°C 90,7% 9,9°C 999,8hPa 11,4°C 0,0km/h (0Bft) 0,0km/h 0,0l/m² 0,579klx 0,0min
21:00 11,4°C 90,9% 9,9°C 999,8hPa 11,4°C 0,0km/h (0Bft) 0,0km/h 0,0l/m² 1,051klx 0,0min
20:55 11,4°C 90,7% 9,9°C 999,8hPa 11,4°C 0,0km/h (0Bft) 0,0km/h 0,0l/m² 1,158klx 0,0min
20:50 11,4°C 90,4% 9,9°C 999,8hPa 11,4°C 0,0km/h (0Bft) 0,0km/h 0,0l/m² 1,355klx 0,0min
20:45 11,9°C 88,5% 10,1°C 999,8hPa 11,9°C 0,0km/h (0Bft) 0,0km/h 0,0l/m² 1,674klx 0,0min
20:40 11,9°C 89,2% 10,2°C 999,8hPa 11,9°C 0,0km/h (0Bft) 0,0km/h 0,0l/m² 1,845klx 0,0min
20:35 11,7°C 89,8% 10,1°C 999,8hPa 11,7°C 0,0km/h (0Bft) 0,0km/h 0,0l/m² 2,115klx 0,0min
20:30 11,8°C 89,7% 10,1°C 999,8hPa 11,8°C 0,0km/h (0Bft) 0,0km/h 0,0l/m² 2,702klx 0,0min
20:25 11,8°C 88,9% 10,1°C 999,8hPa 11,8°C 0,0km/h (0Bft) 0,0km/h 0,0l/m² 3,577klx 0,0min
20:20 12,0°C 87,9% 10,0°C 999,8hPa 12,0°C 0,0km/h (0Bft) 0,0km/h 0,0l/m² 3,946klx 0,0min
20:15 12,0°C 87,5% 10,0°C 999,9hPa 12,0°C 0,0km/h (0Bft) 0,0km/h 0,0l/m² 4,560klx 0,0min
20:10 12,0°C 87,5% 10,0°C 999,9hPa 12,0°C 0,0km/h (0Bft) 0,0km/h 0,0l/m² 6,045klx 0,0min
20:05 11,9°C 88,9% 10,2°C 1000,0hPa 11,9°C 0,0km/h (0Bft) 0,0km/h 0,0l/m² 6,935klx 0,0min
20:00 11,9°C 88,9% 10,2°C 1000,0hPa 11,9°C 0,0km/h (0Bft) 0,0km/h 0,0l/m² 7,212klx 0,0min
19:55 12,0°C 89,3% 10,2°C 1000,1hPa 12,0°C 0,0km/h (0Bft) 0,0km/h 0,0l/m² 5,949klx 0,0min
19:50 12,0°C 89,5% 10,3°C 1000,1hPa 12,0°C 0,0km/h (0Bft) 0,0km/h 0,0l/m² 6,210klx 0,0min
19:45 11,9°C 89,8% 10,3°C 1000,1hPa 11,9°C 0,0km/h (0Bft) 0,0km/h 0,0l/m² 6,752klx 0,0min
19:40 11,9°C 90,1% 10,3°C 1000,1hPa 11,9°C 0,0km/h (0Bft) 0,0km/h 0,0l/m² 7,084klx 0,0min
19:35 11,9°C 89,7% 10,2°C 1000,2hPa 11,9°C 0,0km/h (0Bft) 0,0km/h 0,0l/m² 7,108klx 0,0min
19:30 11,9°C 89,2% 10,1°C 1000,2hPa 11,9°C 0,0km/h (0Bft) 0,0km/h 0,0l/m² 5,636klx 0,0min
19:25 11,8°C 89,6% 10,2°C 1000,3hPa 11,8°C 0,0km/h (0Bft) 0,0km/h 0,0l/m² 5,424klx 0,0min
19:20 11,8°C 90,0% 10,2°C 1000,4hPa 11,8°C 0,0km/h (0Bft) 0,0km/h 0,0l/m² 5,208klx 0,0min
19:15 11,9°C 89,7% 10,2°C 1000,4hPa 11,9°C 0,0km/h (0Bft) 0,0km/h 0,0l/m² 6,443klx 0,0min
19:10 12,0°C 89,2% 10,2°C 1000,4hPa 12,0°C 0,0km/h (0Bft) 0,0km/h 0,0l/m² 7,783klx 0,0min
19:05 12,0°C 90,1% 10,4°C 1000,4hPa 12,0°C 0,0km/h (0Bft) 0,0km/h 0,0l/m² 10,086klx 0,0min
19:00 12,2°C 89,6% 10,5°C 1000,5hPa 12,2°C 0,0km/h (0Bft) 0,0km/h 0,0l/m² 13,019klx 0,0min
18:55 12,1°C 89,1% 10,4°C 1000,5hPa 12,1°C 0,0km/h (0Bft) 0,0km/h 0,0l/m² 17,425klx 0,0min
18:50 12,1°C 89,9% 10,5°C 1000,5hPa 12,1°C 0,0km/h (0Bft) 0,0km/h 0,0l/m² 20,458klx 0,0min
18:45 12,1°C 90,4% 10,6°C 1000,6hPa 12,1°C 0,0km/h (0Bft) 0,0km/h 0,0l/m² 17,683klx 0,0min
18:40 11,8°C 91,1% 10,4°C 1000,6hPa 11,8°C 0,0km/h (0Bft) 0,0km/h 0,0l/m² 19,549klx 0,0min
18:35 12,0°C 91,4% 10,6°C 1000,7hPa 12,0°C 0,0km/h (0Bft) 0,0km/h 0,0l/m² 21,452klx 0,0min
18:30 11,9°C 91,4% 10,5°C 1000,7hPa 11,9°C 0,0km/h (0Bft) 0,0km/h 0,0l/m² 23,289klx 0,0min
18:25 12,0°C 91,3% 10,6°C 1000,8hPa 12,0°C 0,0km/h (0Bft) 0,0km/h 0,0l/m² 21,673klx 0,0min
18:20 11,9°C 91,3% 10,5°C 1000,8hPa 11,9°C 0,0km/h (0Bft) 0,0km/h 0,0l/m² 22,247klx 0,0min
18:15 11,6°C 91,1% 10,2°C 1000,8hPa 11,6°C 0,0km/h (0Bft) 0,0km/h 0,0l/m² 19,549klx 4,0min
18:10 11,9°C 90,5% 10,4°C 1000,9hPa 11,9°C 0,0km/h (0Bft) 0,0km/h 0,0l/m² 19,157klx 5,0min
18:05 12,0°C 90,4% 10,5°C 1001,0hPa 12,0°C 0,0km/h (0Bft) 0,0km/h 0,0l/m² 15,193klx 5,0min
18:00 12,0°C 90,2% 10,4°C 1001,0hPa 12,0°C 0,0km/h (0Bft) 0,0km/h 0,0l/m² 12,547klx 5,0min
17:55 12,1°C 90,1% 10,5°C 1001,1hPa 12,1°C 0,0km/h (0Bft) 0,0km/h 0,0l/m² 16,697klx 5,0min
17:50 12,0°C 89,6% 10,3°C 1001,1hPa 12,0°C 0,0km/h (0Bft) 0,0km/h 0,1l/m² 17,968klx 5,0min
17:45 12,1°C 89,0% 10,3°C 1001,1hPa 12,1°C 0,0km/h (0Bft) 0,0km/h 0,0l/m² 12,657klx 5,0min
17:40 12,1°C 88,3% 10,2°C 1001,1hPa 12,1°C 0,0km/h (0Bft) 0,0km/h 0,0l/m² 8,604klx 0,8min
17:35 12,2°C 89,5% 10,6°C 1001,1hPa 12,2°C 0,0km/h (0Bft) 0,0km/h 0,0l/m² 7,779klx 0,0min
17:30 12,6°C 89,0% 10,8°C 1001,1hPa 12,6°C 0,0km/h (0Bft) 0,0km/h 0,0l/m² 14,182klx 0,0min
17:25 12,7°C 89,3% 11,0°C 1001,1hPa 12,7°C 0,0km/h (0Bft) 0,0km/h 0,0l/m² 23,764klx 0,0min
17:20 12,5°C 89,9% 10,9°C 1001,2hPa 12,5°C 0,0km/h (0Bft) 0,0km/h 0,0l/m² 30,962klx 0,0min
17:15 12,3°C 90,2% 10,8°C 1001,2hPa 12,3°C 0,0km/h (0Bft) 0,0km/h 0,0l/m² 38,557klx 0,0min
17:10 12,2°C 90,1% 10,6°C 1001,3hPa 12,2°C 0,0km/h (0Bft) 0,0km/h 0,0l/m² 36,397klx 0,0min
17:05 11,9°C 90,2% 10,3°C 1001,3hPa 11,9°C 0,0km/h (0Bft) 0,0km/h 0,0l/m² 35,339klx 0,0min
17:00 12,6°C 90,7% 11,1°C 1001,4hPa 12,6°C 0,0km/h (0Bft) 0,0km/h 0,0l/m² 36,218klx 0,0min
16:55 12,3°C 90,7% 10,8°C 1001,4hPa 12,3°C 0,0km/h (0Bft) 0,0km/h 0,0l/m² 76,098klx 0,7min
16:50 11,3°C 90,6% 9,9°C 1001,6hPa 11,3°C 0,0km/h (0Bft) 0,0km/h 0,1l/m² 46,386klx 5,0min
16:45 11,1°C 90,4% 9,6°C 1001,7hPa 11,1°C 0,0km/h (0Bft) 0,0km/h 0,2l/m² 8,703klx 5,0min
16:40 11,0°C 90,0% 9,4°C 1001,8hPa 11,0°C 0,0km/h (0Bft) 0,0km/h 0,3l/m² 4,428klx 5,0min
16:35 11,1°C 89,2% 9,4°C 1001,8hPa 11,1°C 0,0km/h (0Bft) 0,0km/h 0,3l/m² 3,085klx 5,0min
16:30 11,5°C 87,2% 9,4°C 1001,9hPa 11,5°C 0,0km/h (0Bft) 0,0km/h 1,8l/m² 2,362klx 5,0min
16:25 12,7°C 79,7% 9,3°C 1001,8hPa 12,7°C 0,0km/h (0Bft) 0,0km/h 0,8l/m² 1,516klx 5,0min
16:20 13,9°C 70,3% 8,6°C 1001,4hPa 13,9°C 0,0km/h (0Bft) 0,0km/h 0,0l/m² 3,532klx 1,9min
16:15 14,1°C 70,7% 8,8°C 1001,2hPa 14,1°C 0,0km/h (0Bft) 0,0km/h 0,0l/m² 5,001klx 0,0min
16:10 14,1°C 75,1% 9,8°C 1001,2hPa 14,1°C 0,0km/h (0Bft) 0,0km/h 0,0l/m² 10,703klx 0,0min
16:05 14,3°C 72,8% 9,4°C 1001,2hPa 14,3°C 0,0km/h (0Bft) 0,0km/h 0,0l/m² 20,198klx 0,0min
16:00 14,5°C 69,6% 9,0°C 1001,3hPa 14,5°C 0,0km/h (0Bft) 0,0km/h 0,0l/m² 27,563klx 0,0min
15:55 14,7°C 73,1% 9,9°C 1001,4hPa 14,7°C 0,0km/h (0Bft) 0,0km/h 0,0l/m² 39,893klx 0,0min
15:50 14,6°C 71,2% 9,4°C 1001,4hPa 14,6°C 0,0km/h (0Bft) 0,0km/h 0,0l/m² 41,033klx 0,0min
15:45 14,6°C 70,9% 9,4°C 1001,5hPa 14,6°C 0,0km/h (0Bft) 0,0km/h 0,0l/m² 43,331klx 0,0min
15:40 14,4°C 77,6% 10,5°C 1001,6hPa 14,4°C 0,0km/h (0Bft) 0,0km/h 0,0l/m² 52,587klx 0,0min
15:35 14,3°C 76,5% 10,2°C 1001,7hPa 14,3°C 0,0km/h (0Bft) 0,0km/h 0,0l/m² 40,974klx 0,0min
15:30 14,1°C 75,5% 9,8°C 1001,9hPa 14,1°C 0,0km/h (0Bft) 0,0km/h 0,0l/m² 33,883klx 0,0min
15:25 14,3°C 77,0% 10,3°C 1001,9hPa 14,3°C 0,0km/h (0Bft) 0,0km/h 0,0l/m² 39,224klx 0,0min
15:20 14,0°C 80,6% 10,8°C 1002,0hPa 14,0°C 0,0km/h (0Bft) 0,0km/h 0,0l/m² 79,718klx 0,0min
15:15 13,9°C 85,0% 11,4°C 1002,1hPa 13,9°C 0,0km/h (0Bft) 0,0km/h 0,0l/m² 67,853klx 0,0min
15:10 13,9°C 83,6% 11,2°C 1002,2hPa 13,9°C 0,0km/h (0Bft) 0,0km/h 0,0l/m² 46,238klx 0,0min
15:05 13,7°C 83,2% 10,9°C 1002,2hPa 13,7°C 0,0km/h (0Bft) 0,0km/h 0,0l/m² 47,738klx 0,0min
15:00 13,6°C 83,1% 10,7°C 1002,3hPa 13,6°C 0,0km/h (0Bft) 0,0km/h 0,0l/m² 60,961klx 0,0min
14:55 13,6°C 86,4% 11,4°C 1002,4hPa 13,6°C 0,0km/h (0Bft) 0,0km/h 0,0l/m² 53,204klx 0,0min
14:50 13,2°C 87,2% 11,2°C 1002,5hPa 13,2°C 0,0km/h (0Bft) 0,0km/h 0,0l/m² 74,092klx 0,0min
14:45 12,8°C 88,2% 10,9°C 1002,6hPa 12,8°C 0,0km/h (0Bft) 0,0km/h 0,0l/m² 56,900klx 0,0min
14:40 12,6°C 88,5% 10,7°C 1002,7hPa 12,6°C 0,0km/h (0Bft) 0,0km/h 0,0l/m² 54,832klx 0,0min
14:35 12,4°C 89,0% 10,7°C 1002,9hPa 12,4°C 0,0km/h (0Bft) 0,0km/h 0,0l/m² 62,563klx 0,0min
14:30 12,0°C 89,9% 10,4°C 1003,0hPa 12,0°C 0,0km/h (0Bft) 0,0km/h 0,0l/m² 54,778klx 0,0min
14:25 11,8°C 90,3% 10,2°C 1003,1hPa 11,8°C 0,0km/h (0Bft) 0,0km/h 0,0l/m² 49,023klx 0,0min
14:20 11,2°C 90,1% 9,7°C 1003,1hPa 11,2°C 0,0km/h (0Bft) 0,0km/h 0,0l/m² 49,096klx 0,0min
14:15 11,3°C 90,0% 9,7°C 1003,1hPa 11,3°C 0,0km/h (0Bft) 0,0km/h 0,0l/m² 49,319klx 0,0min
14:10 10,9°C 89,7% 9,3°C 1003,1hPa 10,9°C 0,0km/h (0Bft) 0,0km/h 0,0l/m² 55,790klx 0,7min
14:05 10,8°C 90,4% 9,3°C 1003,2hPa 10,8°C 0,0km/h (0Bft) 0,0km/h 0,0l/m² 43,792klx 5,0min
14:00 10,7°C 90,5% 9,2°C 1003,4hPa 10,7°C 0,0km/h (0Bft) 0,0km/h 0,2l/m² 25,558klx 5,0min
13:55 10,6°C 90,5% 9,1°C 1003,7hPa 10,6°C 0,0km/h (0Bft) 0,0km/h 0,3l/m² 19,271klx 5,0min
13:50 10,7°C 90,3% 9,1°C 1003,9hPa 10,7°C 0,0km/h (0Bft) 0,0km/h 0,3l/m² 16,691klx 5,0min
13:45 10,5°C 90,0% 9,0°C 1004,1hPa 10,5°C 0,0km/h (0Bft) 0,0km/h 0,3l/m² 13,011klx 5,0min
13:40 10,7°C 89,5% 9,0°C 1004,1hPa 10,7°C 0,0km/h (0Bft) 0,0km/h 0,4l/m² 11,209klx 5,0min
13:35 10,8°C 88,4% 8,9°C 1004,1hPa 10,8°C 0,0km/h (0Bft) 0,0km/h 0,4l/m² 12,045klx 5,0min
13:30 10,8°C 86,6% 8,7°C 1004,0hPa 10,8°C 0,0km/h (0Bft) 0,0km/h 0,2l/m² 10,751klx 5,0min
13:25 11,2°C 82,8% 8,4°C 1004,0hPa 11,2°C 0,0km/h (0Bft) 0,0km/h 0,1l/m² 9,542klx 5,0min
13:20 12,8°C 75,7% 8,6°C 1003,7hPa 12,8°C 0,0km/h (0Bft) 0,0km/h 0,1l/m² 7,553klx 5,0min
13:15 14,0°C 69,4% 8,5°C 1003,4hPa 14,0°C 0,0km/h (0Bft) 0,0km/h 0,0l/m² 9,276klx 1,1min
13:10 14,4°C 74,4% 9,9°C 1003,3hPa 14,4°C 0,0km/h (0Bft) 0,0km/h 0,0l/m² 23,004klx 0,0min
13:05 14,3°C 74,6% 9,8°C 1003,3hPa 14,3°C 0,0km/h (0Bft) 0,0km/h 0,0l/m² 34,933klx 0,0min
13:00 14,1°C 74,8% 9,7°C 1003,3hPa 14,1°C 0,0km/h (0Bft) 0,0km/h 0,0l/m² 24,658klx 0,0min
12:55 14,2°C 73,8% 9,6°C 1003,3hPa 14,2°C 0,0km/h (0Bft) 0,0km/h 0,0l/m² 27,689klx 0,0min
12:50 14,2°C 74,0% 9,7°C 1003,3hPa 14,2°C 0,0km/h (0Bft) 0,0km/h 0,0l/m² 32,994klx 0,0min
12:45 14,4°C 73,7% 9,8°C 1003,4hPa 14,4°C 0,0km/h (0Bft) 0,0km/h 0,0l/m² 31,928klx 0,0min
12:40 14,6°C 72,5% 9,7°C 1003,4hPa 14,6°C 0,0km/h (0Bft) 0,0km/h 0,0l/m² 91,237klx 0,0min
12:35 14,2°C 75,3% 9,9°C 1003,5hPa 14,2°C 0,0km/h (0Bft) 0,0km/h 0,0l/m² 91,159klx 0,0min
12:30 14,0°C 75,9% 9,8°C 1003,6hPa 14,0°C 0,0km/h (0Bft) 0,0km/h 0,0l/m² 98,903klx 0,0min
12:25 13,6°C 76,7% 9,6°C 1003,7hPa 13,6°C 0,0km/h (0Bft) 0,0km/h 0,0l/m² 58,087klx 0,0min
12:20 13,8°C 79,1% 10,3°C 1003,8hPa 13,8°C 0,0km/h (0Bft) 0,0km/h 0,0l/m² 41,640klx 0,0min
12:15 13,9°C 78,0% 10,1°C 1003,9hPa 13,9°C 0,0km/h (0Bft) 0,0km/h 0,0l/m² 52,093klx 0,0min
12:10 13,6°C 79,1% 10,0°C 1004,0hPa 13,6°C 0,0km/h (0Bft) 0,0km/h 0,0l/m² 97,680klx 0,0min
12:05 13,3°C 80,5% 10,0°C 1004,0hPa 13,3°C 0,0km/h (0Bft) 0,0km/h 0,0l/m² 65,770klx 0,2min
12:00 13,5°C 80,0% 10,1°C 1004,1hPa 13,5°C 0,0km/h (0Bft) 0,0km/h 0,0l/m² 38,586klx 0,0min
11:55 13,0°C 79,3% 9,5°C 1004,2hPa 13,0°C 0,0km/h (0Bft) 0,0km/h 0,0l/m² 35,608klx 0,0min
11:50 12,9°C 79,4% 9,4°C 1004,2hPa 12,9°C 0,0km/h (0Bft) 0,0km/h 0,0l/m² 27,791klx 0,0min
11:45 13,2°C 78,3% 9,5°C 1004,2hPa 13,2°C 0,0km/h (0Bft) 0,0km/h 0,0l/m² 16,391klx 0,0min
11:40 14,0°C 76,9% 10,0°C 1004,2hPa 14,0°C 0,0km/h (0Bft) 0,0km/h 0,0l/m² 37,691klx 0,0min
11:35 14,3°C 78,7% 10,6°C 1004,3hPa 14,3°C 0,0km/h (0Bft) 0,0km/h 0,0l/m² 109,115klx 0,0min
11:30 13,4°C 82,6% 10,5°C 1004,3hPa 13,4°C 0,0km/h (0Bft) 0,0km/h 0,0l/m² 96,531klx 0,0min
11:25 12,9°C 84,4% 10,4°C 1004,4hPa 12,9°C 0,0km/h (0Bft) 0,0km/h 0,0l/m² 54,150klx 0,0min
11:20 12,8°C 85,9% 10,5°C 1004,4hPa 12,8°C 0,0km/h (0Bft) 0,0km/h 0,0l/m² 64,660klx 0,0min
11:15 12,3°C 86,0% 10,0°C 1004,5hPa 12,3°C 0,0km/h (0Bft) 0,0km/h 0,0l/m² 24,738klx 0,0min
11:10 12,6°C 87,0% 10,5°C 1004,5hPa 12,6°C 0,0km/h (0Bft) 0,0km/h 0,0l/m² 35,791klx 0,0min
11:05 12,9°C 88,2% 10,9°C 1004,6hPa 12,9°C 0,0km/h (0Bft) 0,0km/h 0,0l/m² 81,046klx 0,0min
11:00 12,3°C 89,3% 10,6°C 1004,6hPa 12,3°C 0,0km/h (0Bft) 0,0km/h 0,0l/m² 57,664klx 0,0min
10:55 11,8°C 89,5% 10,1°C 1004,7hPa 11,8°C 0,0km/h (0Bft) 0,0km/h 0,0l/m² 42,987klx 0,0min
10:50 11,5°C 89,5% 9,9°C 1004,7hPa 11,5°C 0,0km/h (0Bft) 0,0km/h 0,0l/m² 35,327klx 3,6min
10:45 11,6°C 89,8% 10,0°C 1004,7hPa 11,6°C 0,0km/h (0Bft) 0,0km/h 0,0l/m² 37,257klx 5,0min
10:40 11,6°C 90,0% 10,0°C 1004,7hPa 11,6°C 0,0km/h (0Bft) 0,0km/h 0,0l/m² 39,764klx 3,6min
10:35 11,3°C 90,1% 9,7°C 1004,8hPa 11,3°C 0,0km/h (0Bft) 0,0km/h 0,0l/m² 26,906klx 0,0min
10:30 11,1°C 90,2% 9,6°C 1004,8hPa 11,1°C 0,0km/h (0Bft) 0,0km/h 0,0l/m² 21,053klx 0,0min
10:25 11,0°C 90,3% 9,5°C 1004,9hPa 11,0°C 0,0km/h (0Bft) 0,0km/h 0,0l/m² 20,418klx 0,0min
10:20 11,1°C 90,5% 9,6°C 1004,9hPa 11,1°C 0,0km/h (0Bft) 0,0km/h 0,0l/m² 11,046klx 0,0min
10:15 11,1°C 90,5% 9,6°C 1004,9hPa 11,1°C 0,0km/h (0Bft) 0,0km/h 0,0l/m² 8,920klx 0,0min
10:10 11,1°C 90,6% 9,6°C 1004,9hPa 11,1°C 0,0km/h (0Bft) 0,0km/h 0,0l/m² 15,197klx 0,0min
10:05 11,3°C 90,7% 9,8°C 1004,9hPa 11,3°C 0,0km/h (0Bft) 0,0km/h 0,0l/m² 20,405klx 0,0min
10:00 11,1°C 90,7% 9,6°C 1004,9hPa 11,1°C 0,0km/h (0Bft) 0,0km/h 0,0l/m² 23,543klx 0,0min
09:55 11,1°C 90,8% 9,6°C 1004,9hPa 11,1°C 0,0km/h (0Bft) 0,0km/h 0,0l/m² 20,554klx 1,1min
09:50 10,9°C 90,7% 9,5°C 1004,9hPa 10,9°C 0,0km/h (0Bft) 0,0km/h 0,0l/m² 18,053klx 5,0min
09:45 10,9°C 90,6% 9,4°C 1004,9hPa 10,9°C 0,0km/h (0Bft) 0,0km/h 0,0l/m² 13,614klx 5,0min
09:40 10,9°C 90,3% 9,4°C 1004,9hPa 10,9°C 0,0km/h (0Bft) 0,0km/h 0,1l/m² 15,565klx 5,0min
09:35 10,8°C 90,1% 9,2°C 1004,9hPa 10,8°C 0,0km/h (0Bft) 0,0km/h 0,0l/m² 14,193klx 5,0min
09:30 10,8°C 89,8% 9,2°C 1005,0hPa 10,8°C 0,0km/h (0Bft) 0,0km/h 0,2l/m² 5,979klx 5,0min
09:25 10,9°C 89,0% 9,2°C 1005,0hPa 10,9°C 0,0km/h (0Bft) 0,0km/h 0,3l/m² 8,127klx 4,7min
09:20 11,0°C 88,9% 9,2°C 1005,0hPa 11,0°C 0,0km/h (0Bft) 0,0km/h 0,0l/m² 3,485klx 0,0min
09:15 11,0°C 88,5% 9,2°C 1005,0hPa 11,0°C 0,0km/h (0Bft) 0,0km/h 0,0l/m² 4,916klx 0,0min
09:10 11,0°C 88,5% 9,2°C 1005,0hPa 11,0°C 0,0km/h (0Bft) 0,0km/h 0,0l/m² 5,635klx 0,0min
09:05 11,0°C 88,7% 9,2°C 1005,0hPa 11,0°C 0,0km/h (0Bft) 0,0km/h 0,0l/m² 6,278klx 0,0min
09:00 11,1°C 88,5% 9,3°C 1005,0hPa 11,1°C 0,0km/h (0Bft) 0,0km/h 0,0l/m² 7,902klx 0,0min
08:55 11,1°C 88,6% 9,2°C 1005,0hPa 11,1°C 0,0km/h (0Bft) 0,0km/h 0,0l/m² 10,405klx 0,0min
08:50 11,1°C 89,2% 9,3°C 1005,0hPa 11,1°C 0,0km/h (0Bft) 0,0km/h 0,0l/m² 9,616klx 0,0min
08:45 11,1°C 89,1% 9,3°C 1005,0hPa 11,1°C 0,0km/h (0Bft) 0,0km/h 0,0l/m² 9,195klx 0,0min
08:40 11,0°C 89,3% 9,3°C 1005,0hPa 11,0°C 0,0km/h (0Bft) 0,0km/h 0,0l/m² 9,463klx 0,0min
08:35 11,0°C 89,7% 9,3°C 1005,0hPa 11,0°C 0,0km/h (0Bft) 0,0km/h 0,0l/m² 10,076klx 0,0min
08:30 10,9°C 89,5% 9,3°C 1005,0hPa 10,9°C 0,0km/h (0Bft) 0,0km/h 0,0l/m² 10,548klx 0,0min
08:25 10,9°C 89,8% 9,3°C 1005,1hPa 10,9°C 0,0km/h (0Bft) 0,0km/h 0,0l/m² 9,582klx 0,0min
08:20 10,8°C 90,2% 9,3°C 1005,1hPa 10,8°C 0,0km/h (0Bft) 0,0km/h 0,0l/m² 8,686klx 0,0min
08:15 10,9°C 90,3% 9,4°C 1005,1hPa 10,9°C 0,0km/h (0Bft) 0,0km/h 0,0l/m² 6,330klx 0,0min
08:10 10,8°C 90,3% 9,3°C 1005,1hPa 10,8°C 0,0km/h (0Bft) 0,0km/h 0,0l/m² 5,325klx 0,0min
08:05 10,8°C 90,5% 9,3°C 1005,1hPa 10,8°C 0,0km/h (0Bft) 0,0km/h 0,0l/m² 6,759klx 0,0min
08:00 10,8°C 90,9% 9,4°C 1005,1hPa 10,8°C 0,0km/h (0Bft) 0,0km/h 0,0l/m² 10,897klx 0,0min
07:55 10,8°C 90,9% 9,3°C 1005,1hPa 10,8°C 0,0km/h (0Bft) 0,0km/h 0,0l/m² 9,416klx 0,0min
07:50 10,7°C 91,0% 9,3°C 1005,2hPa 10,7°C 0,0km/h (0Bft) 0,0km/h 0,0l/m² 7,802klx 0,0min
07:45 10,6°C 91,2% 9,2°C 1005,1hPa 10,6°C 0,0km/h (0Bft) 0,0km/h 0,0l/m² 8,785klx 0,0min
07:40 10,5°C 91,3% 9,1°C 1005,1hPa 10,5°C 0,0km/h (0Bft) 0,0km/h 0,0l/m² 6,509klx 0,0min
07:35 10,5°C 91,2% 9,1°C 1005,2hPa 10,5°C 0,0km/h (0Bft) 0,0km/h 0,0l/m² 6,110klx 0,0min
07:30 10,5°C 91,3% 9,1°C 1005,2hPa 10,5°C 0,0km/h (0Bft) 0,0km/h 0,0l/m² 4,614klx 0,0min
07:25 10,5°C 91,4% 9,1°C 1005,3hPa 10,5°C 0,0km/h (0Bft) 0,0km/h 0,0l/m² 6,784klx 0,0min
07:20 10,3°C 91,4% 9,0°C 1005,3hPa 10,3°C 0,0km/h (0Bft) 0,0km/h 0,0l/m² 5,160klx 0,0min
07:15 10,2°C 91,4% 8,9°C 1005,3hPa 10,2°C 0,0km/h (0Bft) 0,0km/h 0,0l/m² 2,721klx 0,0min
07:10 10,2°C 91,5% 8,9°C 1005,3hPa 10,2°C 0,0km/h (0Bft) 0,0km/h 0,0l/m² 2,382klx 0,0min
07:05 10,3°C 91,5% 9,0°C 1005,3hPa 10,3°C 0,0km/h (0Bft) 0,0km/h 0,0l/m² 1,850klx 0,0min
07:00 10,2°C 91,5% 8,9°C 1005,3hPa 10,2°C 0,0km/h (0Bft) 0,0km/h 0,0l/m² 1,400klx 0,0min
06:55 10,2°C 91,4% 8,9°C 1005,3hPa 10,2°C 0,0km/h (0Bft) 0,0km/h 0,0l/m² 1,330klx 0,0min
06:50 10,3°C 91,3% 8,9°C 1005,3hPa 10,3°C 0,0km/h (0Bft) 0,0km/h 0,0l/m² 1,615klx 4,5min
06:45 10,2°C 91,1% 8,8°C 1005,3hPa 10,2°C 0,0km/h (0Bft) 0,0km/h 0,0l/m² 1,609klx 5,0min
06:40 10,2°C 90,9% 8,7°C 1005,3hPa 10,2°C 0,0km/h (0Bft) 0,0km/h 0,0l/m² 1,451klx 5,0min
06:35 10,2°C 90,6% 8,7°C 1005,3hPa 10,2°C 0,0km/h (0Bft) 0,0km/h 0,4l/m² 1,286klx 5,0min
06:30 10,2°C 90,8% 8,8°C 1005,3hPa 10,2°C 0,0km/h (0Bft) 0,0km/h 0,0l/m² 1,271klx 2,8min
06:25 10,1°C 91,0% 8,7°C 1005,3hPa 10,1°C 0,0km/h (0Bft) 0,0km/h 0,0l/m² 1,255klx 0,0min
06:20 10,1°C 91,2% 8,7°C 1005,3hPa 10,1°C 0,0km/h (0Bft) 0,0km/h 0,0l/m² 1,044klx 0,0min
06:15 9,9°C 91,3% 8,6°C 1005,2hPa 9,9°C 0,0km/h (0Bft) 0,0km/h 0,0l/m² 1,154klx 0,0min
06:10 9,8°C 91,5% 8,5°C 1005,2hPa 9,8°C 0,0km/h (0Bft) 0,0km/h 0,0l/m² 0,946klx 0,0min
06:05 9,8°C 91,6% 8,4°C 1005,2hPa 9,8°C 0,0km/h (0Bft) 0,0km/h 0,0l/m² 0,781klx 0,0min
06:00 9,7°C 91,6% 8,4°C 1005,3hPa 9,7°C 0,0km/h (0Bft) 0,0km/h 0,0l/m² 0,659klx 0,0min
05:55 9,7°C 91,7% 8,4°C 1005,2hPa 9,7°C 0,0km/h (0Bft) 0,0km/h 0,0l/m² 0,519klx 0,0min
05:50 9,7°C 91,7% 8,4°C 1005,2hPa 9,7°C 0,0km/h (0Bft) 0,0km/h 0,0l/m² 0,397klx 0,0min
05:45 9,5°C 91,7% 8,2°C 1005,1hPa 9,5°C 0,0km/h (0Bft) 0,0km/h 0,0l/m² 0,297klx 0,0min
05:40 9,5°C 91,7% 8,2°C 1005,1hPa 9,5°C 0,0km/h (0Bft) 0,0km/h 0,0l/m² 0,201klx 0,0min
05:35 9,5°C 91,8% 8,2°C 1005,1hPa 9,5°C 0,0km/h (0Bft) 0,0km/h 0,0l/m² 0,131klx 0,0min
05:30 9,5°C 91,8% 8,2°C 1005,2hPa 9,5°C 0,0km/h (0Bft) 0,0km/h 0,0l/m² 0,081klx 0,0min
05:25 9,5°C 91,8% 8,2°C 1005,2hPa 9,5°C 0,0km/h (0Bft) 0,0km/h 0,0l/m² 0,052klx 0,0min
05:20 9,4°C 91,7% 8,1°C 1005,2hPa 9,4°C 0,0km/h (0Bft) 0,0km/h 0,0l/m² 0,031klx 0,0min
05:15 9,4°C 91,7% 8,1°C 1005,3hPa 9,4°C 0,0km/h (0Bft) 0,0km/h 0,0l/m² 0,016klx 0,0min
05:10 9,5°C 91,7% 8,2°C 1005,3hPa 9,5°C 0,0km/h (0Bft) 0,0km/h 0,0l/m² 0,007klx 0,0min
05:05 9,6°C 91,7% 8,3°C 1005,4hPa 9,6°C 0,0km/h (0Bft) 0,0km/h 0,0l/m² 0,003klx 0,0min
05:00 9,6°C 91,7% 8,3°C 1005,3hPa 9,6°C 0,0km/h (0Bft) 0,0km/h 0,0l/m² 0,002klx 0,0min
04:55 9,6°C 91,7% 8,3°C 1005,3hPa 9,6°C 0,0km/h (0Bft) 0,0km/h 0,0l/m² 0,001klx 0,0min
04:50 9,6°C 91,7% 8,3°C 1005,4hPa 9,6°C 0,0km/h (0Bft) 0,0km/h 0,0l/m² 0,001klx 0,0min
04:45 9,6°C 91,7% 8,3°C 1005,5hPa 9,6°C 0,0km/h (0Bft) 0,0km/h 0,0l/m² 0,000klx 0,0min
04:40 9,5°C 91,7% 8,2°C 1005,6hPa 9,5°C 0,0km/h (0Bft) 0,0km/h 0,0l/m² 0,000klx 0,0min
04:35 9,3°C 91,7% 8,0°C 1005,6hPa 9,3°C 0,0km/h (0Bft) 0,0km/h 0,0l/m² 0,000klx 0,0min
04:30 9,3°C 91,6% 8,0°C 1005,6hPa 9,3°C 0,0km/h (0Bft) 0,0km/h 0,0l/m² 0,000klx 0,0min
04:25 9,3°C 91,6% 8,0°C 1005,6hPa 9,3°C 0,0km/h (0Bft) 0,0km/h 0,0l/m² 0,000klx 0,0min
04:20 9,4°C 91,5% 8,1°C 1005,7hPa 9,4°C 0,0km/h (0Bft) 0,0km/h 0,0l/m² 0,000klx 0,0min
04:15 9,5°C 91,5% 8,2°C 1005,7hPa 9,5°C 0,0km/h (0Bft) 0,0km/h 0,0l/m² 0,000klx 0,0min
04:10 9,5°C 91,5% 8,1°C 1005,7hPa 9,5°C 0,0km/h (0Bft) 0,0km/h 0,0l/m² 0,000klx 0,0min
04:05 9,3°C 91,4% 8,0°C 1005,8hPa 9,3°C 0,0km/h (0Bft) 0,0km/h 0,0l/m² 0,000klx 0,0min
04:00 9,4°C 91,3% 8,0°C 1005,8hPa 9,4°C 0,0km/h (0Bft) 0,0km/h 0,0l/m² 0,000klx 0,0min
03:55 9,4°C 91,2% 8,1°C 1005,8hPa 9,4°C 0,0km/h (0Bft) 0,0km/h 0,0l/m² 0,000klx 0,0min
03:50 9,4°C 91,1% 8,0°C 1005,9hPa 9,4°C 0,0km/h (0Bft) 0,0km/h 0,0l/m² 0,000klx 0,0min
03:45 9,5°C 90,9% 8,1°C 1005,9hPa 9,5°C 0,0km/h (0Bft) 0,0km/h 0,0l/m² 0,000klx 0,0min
03:40 9,6°C 90,9% 8,2°C 1005,9hPa 9,6°C 0,0km/h (0Bft) 0,0km/h 0,0l/m² 0,000klx 0,0min
03:35 9,6°C 90,9% 8,2°C 1006,0hPa 9,6°C 0,0km/h (0Bft) 0,0km/h 0,0l/m² 0,000klx 0,0min
03:30 9,6°C 90,9% 8,2°C 1006,0hPa 9,6°C 0,0km/h (0Bft) 0,0km/h 0,0l/m² 0,000klx 0,0min
03:25 9,6°C 90,9% 8,2°C 1006,0hPa 9,6°C 0,0km/h (0Bft) 0,0km/h 0,0l/m² 0,000klx 0,0min
03:20 9,6°C 90,8% 8,2°C 1006,0hPa 9,6°C 0,0km/h (0Bft) 0,0km/h 0,0l/m² 0,000klx 0,0min
03:15 9,7°C 90,8% 8,2°C 1006,0hPa 9,7°C 0,0km/h (0Bft) 0,0km/h 0,0l/m² 0,000klx 0,0min
03:10 9,7°C 90,6% 8,3°C 1006,0hPa 9,7°C 0,0km/h (0Bft) 0,0km/h 0,0l/m² 0,000klx 0,0min
03:05 9,8°C 90,5% 8,3°C 1006,0hPa 9,8°C 0,0km/h (0Bft) 0,0km/h 0,0l/m² 0,000klx 0,0min
03:00 9,8°C 90,5% 8,3°C 1006,1hPa 9,8°C 0,0km/h (0Bft) 0,0km/h 0,0l/m² 0,000klx 0,0min
02:55 9,8°C 90,4% 8,3°C 1006,1hPa 9,8°C 0,0km/h (0Bft) 0,0km/h 0,0l/m² 0,000klx 0,0min
02:50 10,0°C 90,1% 8,4°C 1006,1hPa 10,0°C 0,0km/h (0Bft) 0,0km/h 0,0l/m² 0,000klx 0,0min
02:45 10,0°C 90,1% 8,4°C 1006,1hPa 10,0°C 0,0km/h (0Bft) 0,0km/h 0,0l/m² 0,000klx 0,0min
02:40 10,0°C 90,1% 8,4°C 1006,2hPa 10,0°C 0,0km/h (0Bft) 0,0km/h 0,0l/m² 0,000klx 0,0min
02:35 10,0°C 90,1% 8,5°C 1006,2hPa 10,0°C 0,0km/h (0Bft) 0,0km/h 0,0l/m² 0,000klx 0,0min
02:30 10,0°C 90,1% 8,5°C 1006,2hPa 10,0°C 0,0km/h (0Bft) 0,0km/h 0,0l/m² 0,000klx 0,0min
02:25 10,1°C 90,0% 8,5°C 1006,2hPa 10,1°C 0,0km/h (0Bft) 0,0km/h 0,0l/m² 0,000klx 0,0min
02:20 10,1°C 89,9% 8,6°C 1006,3hPa 10,1°C 0,0km/h (0Bft) 0,0km/h 0,0l/m² 0,000klx 0,0min
02:15 10,2°C 89,7% 8,6°C 1006,3hPa 10,2°C 0,0km/h (0Bft) 0,0km/h 0,0l/m² 0,000klx 0,0min
02:10 10,3°C 89,5% 8,6°C 1006,3hPa 10,3°C 0,0km/h (0Bft) 0,0km/h 0,0l/m² 0,000klx 0,0min
02:05 10,3°C 89,3% 8,6°C 1006,3hPa 10,3°C 0,0km/h (0Bft) 0,0km/h 0,0l/m² 0,000klx 0,0min
02:00 10,5°C 89,1% 8,7°C 1006,3hPa 10,5°C 0,0km/h (0Bft) 0,0km/h 0,0l/m² 0,000klx 0,0min
01:55 10,5°C 89,1% 8,8°C 1006,4hPa 10,5°C 0,0km/h (0Bft) 0,0km/h 0,0l/m² 0,000klx 0,0min
01:50 10,6°C 88,9% 8,9°C 1006,4hPa 10,6°C 0,0km/h (0Bft) 0,0km/h 0,0l/m² 0,000klx 0,0min
01:45 10,7°C 88,7% 8,9°C 1006,5hPa 10,7°C 0,0km/h (0Bft) 0,0km/h 0,0l/m² 0,000klx 0,0min
01:40 10,8°C 88,4% 8,9°C 1006,5hPa 10,8°C 0,0km/h (0Bft) 0,0km/h 0,0l/m² 0,000klx 0,0min
01:35 10,7°C 88,4% 8,9°C 1006,5hPa 10,7°C 0,0km/h (0Bft) 0,0km/h 0,0l/m² 0,000klx 0,0min
01:30 10,7°C 88,6% 8,9°C 1006,5hPa 10,7°C 0,0km/h (0Bft) 0,0km/h 0,0l/m² 0,000klx 0,0min
01:25 10,6°C 89,0% 8,9°C 1006,6hPa 10,6°C 0,0km/h (0Bft) 0,0km/h 0,0l/m² 0,000klx 0,0min
01:20 10,5°C 89,0% 8,8°C 1006,6hPa 10,5°C 0,0km/h (0Bft) 0,0km/h 0,0l/m² 0,000klx 0,0min
01:15 10,5°C 89,2% 8,8°C 1006,7hPa 10,5°C 0,0km/h (0Bft) 0,0km/h 0,0l/m² 0,000klx 0,0min
01:10 10,5°C 89,2% 8,8°C 1006,7hPa 10,5°C 0,0km/h (0Bft) 0,0km/h 0,0l/m² 0,000klx 0,0min
01:05 10,6°C 88,9% 8,8°C 1006,7hPa 10,6°C 0,0km/h (0Bft) 0,0km/h 0,0l/m² 0,000klx 0,0min
01:00 10,7°C 88,8% 8,9°C 1006,8hPa 10,7°C 0,0km/h (0Bft) 0,0km/h 0,0l/m² 0,000klx 0,0min
00:55 10,7°C 88,6% 8,9°C 1006,8hPa 10,7°C 0,0km/h (0Bft) 0,0km/h 0,0l/m² 0,000klx 0,0min
00:50 10,7°C 88,7% 8,9°C 1006,9hPa 10,7°C 0,0km/h (0Bft) 0,0km/h 0,0l/m² 0,000klx 0,0min
00:45 10,7°C 89,0% 8,9°C 1006,9hPa 10,7°C 0,0km/h (0Bft) 0,0km/h 0,0l/m² 0,000klx 0,0min
00:40 10,6°C 88,8% 8,8°C 1006,8hPa 10,6°C 0,0km/h (0Bft) 0,0km/h 0,0l/m² 0,000klx 0,0min
00:35 10,7°C 88,4% 8,8°C 1006,9hPa 10,7°C 0,0km/h (0Bft) 0,0km/h 0,0l/m² 0,000klx 0,0min
00:30 10,8°C 87,8% 8,8°C 1007,0hPa 10,8°C 0,0km/h (0Bft) 0,0km/h 0,0l/m² 0,000klx 0,0min
00:25 10,9°C 87,2% 8,8°C 1007,1hPa 10,9°C 0,0km/h (0Bft) 0,0km/h 0,0l/m² 0,000klx 0,0min
00:20 10,9°C 87,5% 8,9°C 1007,1hPa 10,9°C 0,0km/h (0Bft) 0,0km/h 0,0l/m² 0,000klx 0,0min
00:15 10,9°C 87,4% 8,9°C 1007,1hPa 10,9°C 0,0km/h (0Bft) 0,0km/h 0,0l/m² 0,000klx 0,0min
00:10 10,9°C 87,3% 8,9°C 1007,0hPa 10,9°C 0,0km/h (0Bft) 0,0km/h 0,0l/m² 0,000klx 0,0min
00:05 10,9°C 87,2% 8,9°C 1007,1hPa 10,9°C 0,0km/h (0Bft) 0,0km/h 0,0l/m² 0,000klx 0,0min
00:00 10,9°C 87,5% 8,9°C 1007,1hPa 10,9°C 0,0km/h (0Bft) 0,0km/h 0,0l/m² 0,000klx 0,0min

Aktuelle Wetterdaten

15.05.2021 23:00 Uhr